createdAt,value
2018-03-21T00:01:45.080Z,97623.28
2018-03-21T00:04:13.796Z,97636.40
2018-03-21T00:06:42.465Z,97628.63
2018-03-21T00:09:11.819Z,97638.08
2018-03-21T00:11:40.391Z,97641.59
2018-03-21T00:14:11.322Z,97648.02
2018-03-21T00:16:40.283Z,97644.09
2018-03-21T00:19:08.881Z,97654.03
2018-03-21T00:21:37.560Z,97651.32
2018-03-21T00:24:07.041Z,97654.84
2018-03-21T00:26:35.776Z,97648.39
2018-03-21T00:29:04.450Z,97641.23
2018-03-21T00:31:33.106Z,97638.13
2018-03-21T00:34:03.297Z,97642.30
2018-03-21T00:36:31.903Z,97634.42
2018-03-21T00:39:00.651Z,97640.68
2018-03-21T00:41:29.267Z,97644.34
2018-03-21T00:44:00.158Z,97640.12
2018-03-21T00:46:29.310Z,97636.11
2018-03-21T00:48:57.820Z,97631.91
2018-03-21T00:51:26.475Z,97639.45
2018-03-21T00:53:55.086Z,97625.03
2018-03-21T00:56:23.806Z,97641.61
2018-03-21T00:58:52.609Z,97620.16
2018-03-21T01:01:21.183Z,97634.56
2018-03-21T01:03:50.536Z,97633.70
2018-03-21T01:06:19.147Z,97619.14
2018-03-21T01:08:47.854Z,97629.02
2018-03-21T01:11:17.505Z,97630.53
2018-03-21T01:13:46.494Z,97628.72
2018-03-21T01:16:15.679Z,97621.39
2018-03-21T01:18:45.229Z,97623.72
2018-03-21T01:21:13.911Z,97616.79
2018-03-21T01:23:43.309Z,97619.98
2018-03-21T01:26:11.926Z,97622.50
2018-03-21T01:28:40.498Z,97620.22
2018-03-21T01:31:09.208Z,97614.16
2018-03-21T01:33:37.891Z,97614.25
2018-03-21T01:36:06.632Z,97604.77
2018-03-21T01:38:35.214Z,97607.43
2018-03-21T01:41:03.877Z,97610.85
2018-03-21T01:43:33.305Z,97612.15
2018-03-21T01:46:03.159Z,97617.78
2018-03-21T01:48:32.015Z,97610.47
2018-03-21T01:51:00.635Z,97596.09
2018-03-21T01:53:29.194Z,97606.59
2018-03-21T01:55:57.757Z,97612.88
2018-03-21T01:58:26.344Z,97615.46
2018-03-21T02:00:54.896Z,97618.13
2018-03-21T02:03:23.606Z,97622.81
2018-03-21T02:05:52.325Z,97625.81
2018-03-21T02:08:20.909Z,97626.02
2018-03-21T02:10:49.617Z,97625.14
2018-03-21T02:13:18.146Z,97628.75
2018-03-21T02:15:46.889Z,97633.67
2018-03-21T02:18:15.691Z,97648.33
2018-03-21T02:20:44.816Z,97643.98
2018-03-21T02:23:14.187Z,97642.38
2018-03-21T02:25:42.852Z,97637.70
2018-03-21T02:28:11.472Z,97642.99
2018-03-21T02:30:40.866Z,97649.20
2018-03-21T02:33:09.488Z,97646.42
2018-03-21T02:35:38.100Z,97653.58
2018-03-21T02:38:07.428Z,97659.94
2018-03-21T02:40:36.915Z,97663.09
2018-03-21T02:43:05.609Z,97653.30
2018-03-21T02:45:34.269Z,97665.26
2018-03-21T02:48:03.853Z,97657.67
2018-03-21T02:50:32.710Z,97668.45
2018-03-21T02:53:02.717Z,97666.64
2018-03-21T02:55:31.348Z,97679.27
2018-03-21T02:58:00.049Z,97675.28
2018-03-21T03:00:29.446Z,97670.26
2018-03-21T03:02:58.067Z,97693.84
2018-03-21T03:05:26.655Z,97694.22
2018-03-21T03:07:55.237Z,97683.86
2018-03-21T03:10:23.931Z,97693.48
2018-03-21T03:12:52.496Z,97690.82
2018-03-21T03:15:21.056Z,97696.81
2018-03-21T03:17:49.816Z,97695.94
2018-03-21T03:20:18.878Z,97721.40
2018-03-21T03:22:48.297Z,97716.45
2018-03-21T03:25:17.151Z,97722.52
2018-03-21T03:27:45.798Z,97728.38
2018-03-21T03:30:14.534Z,97743.72
2018-03-21T03:32:43.173Z,97747.89
2018-03-21T03:35:11.843Z,97748.77
2018-03-21T03:37:40.415Z,97747.41
2018-03-21T03:40:09.103Z,97756.19
2018-03-21T03:42:38.564Z,97757.38
2018-03-21T03:45:07.205Z,97758.63
2018-03-21T03:47:35.829Z,97767.09
2018-03-21T03:50:04.499Z,97769.05
2018-03-21T03:52:33.125Z,97789.73
2018-03-21T03:55:01.989Z,97785.61
2018-03-21T03:57:32.195Z,97785.85
2018-03-21T04:00:00.846Z,97790.67
2018-03-21T04:02:29.429Z,97785.91
2018-03-21T04:04:58.177Z,97796.17
2018-03-21T04:07:26.785Z,97800.33
2018-03-21T04:09:55.481Z,97795.91
2018-03-21T04:12:24.053Z,97807.62
2018-03-21T04:14:52.681Z,97804.33
2018-03-21T04:17:21.203Z,97802.53
2018-03-21T04:19:49.940Z,97807.72
2018-03-21T04:22:18.570Z,97811.20
2018-03-21T04:24:47.981Z,97820.44
2018-03-21T04:27:16.976Z,97818.77
2018-03-21T04:29:46.192Z,97826.84
2018-03-21T04:32:15.100Z,97834.88
2018-03-21T04:34:43.839Z,97844.02
2018-03-21T04:37:12.492Z,97844.66
2018-03-21T04:39:41.105Z,97856.20
2018-03-21T04:42:10.128Z,97859.33
2018-03-21T04:44:38.908Z,97877.05
2018-03-21T04:47:16.652Z,97870.72
2018-03-21T04:49:45.266Z,97876.53
2018-03-21T04:52:14.431Z,97885.62
2018-03-21T04:54:43.494Z,97898.17
2018-03-21T04:57:12.591Z,97897.69
2018-03-21T04:59:41.289Z,97900.98
2018-03-21T05:02:09.856Z,97901.41
2018-03-21T05:04:38.518Z,97911.39
2018-03-21T05:07:07.090Z,97917.00
2018-03-21T05:09:35.719Z,97928.72
2018-03-21T05:12:04.339Z,97932.72
2018-03-21T05:14:32.990Z,97937.27
2018-03-21T05:17:02.453Z,97956.89
2018-03-21T05:19:31.177Z,97943.60
2018-03-21T05:21:59.810Z,97958.52
2018-03-21T05:24:28.706Z,97966.05
2018-03-21T05:26:57.809Z,97965.09
2018-03-21T05:29:27.587Z,97975.75
2018-03-21T05:31:56.979Z,97961.14
2018-03-21T05:34:25.593Z,97982.53
2018-03-21T05:36:54.428Z,98001.23
2018-03-21T05:39:23.010Z,98003.52
2018-03-21T05:41:51.682Z,98011.31
2018-03-21T05:44:20.304Z,98021.01
2018-03-21T05:46:48.926Z,98021.19
2018-03-21T05:49:17.593Z,98032.77
2018-03-21T05:51:47.120Z,98041.12
2018-03-21T05:54:15.739Z,98045.05
2018-03-21T05:56:44.663Z,98034.06
2018-03-21T05:59:14.688Z,98054.20
2018-03-21T06:01:43.587Z,98046.76
2018-03-21T06:04:12.228Z,98054.75
2018-03-21T06:06:40.809Z,98066.97
2018-03-21T06:09:09.449Z,98074.23
2018-03-21T06:11:40.386Z,98081.62
2018-03-21T06:14:08.960Z,98088.98
2018-03-21T06:16:37.600Z,98086.20
2018-03-21T06:19:06.392Z,98097.94
2018-03-21T06:21:35.970Z,98094.61
2018-03-21T06:24:04.691Z,98096.42
2018-03-21T06:26:33.324Z,98095.39
2018-03-21T06:29:02.971Z,98102.50
2018-03-21T06:31:31.881Z,98095.98
2018-03-21T06:34:00.579Z,98114.77
2018-03-21T06:36:29.260Z,98122.69
2018-03-21T06:38:57.954Z,98121.70
2018-03-21T06:41:27.319Z,98135.50
2018-03-21T06:43:56.015Z,98136.64
2018-03-21T06:46:24.549Z,98135.16
2018-03-21T06:48:53.133Z,98147.51
2018-03-21T06:51:21.824Z,98157.02
2018-03-21T06:53:50.401Z,98150.66
2018-03-21T06:56:20.003Z,98163.64
2018-03-21T06:58:48.698Z,98171.81
2018-03-21T07:01:17.998Z,98168.77
2018-03-21T07:03:47.182Z,98186.98
2018-03-21T07:06:16.573Z,98185.35
2018-03-21T07:08:45.322Z,98186.95
2018-03-21T07:11:14.874Z,98204.36
2018-03-21T07:14:01.414Z,98207.84
2018-03-21T07:16:44.135Z,98211.34
2018-03-21T07:19:13.042Z,98228.30
2018-03-21T07:21:41.913Z,98221.27
2018-03-21T07:24:10.528Z,98231.16
2018-03-21T07:26:39.114Z,98228.90
2018-03-21T07:29:07.734Z,98233.66
2018-03-21T07:31:36.527Z,98239.16
2018-03-21T07:34:05.266Z,98237.63
2018-03-21T07:36:34.668Z,98242.05
2018-03-21T07:39:04.383Z,98243.53
2018-03-21T07:41:33.302Z,98251.39
2018-03-21T07:44:02.053Z,98257.09
2018-03-21T07:46:31.348Z,98266.48
2018-03-21T07:49:00.130Z,98262.39
2018-03-21T07:51:28.881Z,98261.83
2018-03-21T07:53:57.589Z,98262.41
2018-03-21T07:56:26.300Z,98272.23
2018-03-21T07:58:54.901Z,98270.00
2018-03-21T08:01:23.708Z,98281.00
2018-03-21T08:03:52.416Z,98275.19
2018-03-21T08:06:21.061Z,98275.77
2018-03-21T08:08:49.848Z,98286.80
2018-03-21T08:11:19.236Z,98295.98
2018-03-21T08:13:48.642Z,98295.30
2018-03-21T08:16:17.215Z,98305.13
2018-03-21T08:18:45.742Z,98318.66
2018-03-21T08:21:15.167Z,98326.27
2018-03-21T08:23:44.723Z,98316.42
2018-03-21T08:26:13.374Z,98324.42
2018-03-21T08:28:42.041Z,98319.47
2018-03-21T08:31:10.645Z,98329.75
2018-03-21T08:33:39.382Z,98337.68
2018-03-21T08:36:08.093Z,98334.03
2018-03-21T08:38:36.792Z,98323.25
2018-03-21T08:41:05.517Z,98336.27
2018-03-21T08:43:34.806Z,98341.79
2018-03-21T08:46:04.089Z,98333.17
2018-03-21T08:48:32.864Z,98336.22
2018-03-21T08:51:01.548Z,98341.05
2018-03-21T08:53:30.055Z,98344.73
2018-03-21T08:55:58.658Z,98352.80
2018-03-21T08:58:27.235Z,98351.16
2018-03-21T09:00:55.940Z,98350.63
2018-03-21T09:03:24.637Z,98363.75
2018-03-21T09:05:53.328Z,98352.49
2018-03-21T09:08:22.783Z,98345.24
2018-03-21T09:10:51.548Z,98344.38
2018-03-21T09:13:21.007Z,98338.14
2018-03-21T09:19:25.770Z,98354.70
2018-03-21T09:21:55.809Z,98369.27
2018-03-21T09:24:25.211Z,98372.34
2018-03-21T09:26:53.813Z,98379.66
2018-03-21T09:29:22.367Z,98397.16
2018-03-21T09:31:51.813Z,98401.39
2018-03-21T09:34:20.453Z,98403.23
2018-03-21T09:36:49.781Z,98415.30
2018-03-21T09:39:18.363Z,98417.31
2018-03-21T09:41:46.909Z,98405.35
2018-03-21T09:44:15.620Z,98414.13
2018-03-21T09:46:44.240Z,98419.89
2018-03-21T09:49:12.962Z,98424.39
2018-03-21T09:51:41.636Z,98429.94
2018-03-21T09:54:10.940Z,98435.13
2018-03-21T09:56:40.273Z,98431.70
2018-03-21T09:59:09.189Z,98451.78
2018-03-21T10:01:38.644Z,98450.70
2018-03-21T10:04:08.165Z,98441.86
2018-03-21T10:06:37.587Z,98443.34
2018-03-21T10:09:07.152Z,98437.87
2018-03-21T10:11:35.847Z,98440.34
2018-03-21T10:14:04.572Z,98444.42
2018-03-21T10:16:33.409Z,98451.20
2018-03-21T10:19:02.820Z,98456.88
2018-03-21T10:21:31.697Z,98461.80
2018-03-21T10:24:00.569Z,98460.78
2018-03-21T10:26:29.579Z,98478.55
2018-03-21T10:28:58.530Z,98476.78
2018-03-21T10:31:27.169Z,98484.63
2018-03-21T10:33:55.730Z,98477.39
2018-03-21T10:36:25.194Z,98477.41
2018-03-21T10:38:54.217Z,98486.47
2018-03-21T10:41:22.937Z,98490.34
2018-03-21T10:43:51.578Z,98494.84
2018-03-21T10:46:20.920Z,98484.44
2018-03-21T10:48:49.566Z,98487.97
2018-03-21T10:51:18.229Z,98492.84
2018-03-21T10:53:46.959Z,98486.65
2018-03-21T10:56:15.752Z,98500.01
2018-03-21T10:58:45.483Z,98501.47
2018-03-21T11:01:20.008Z,98510.70
2018-03-21T11:03:56.960Z,98518.62
2018-03-21T11:06:25.686Z,98525.98
2018-03-21T11:08:54.375Z,98527.02
2018-03-21T11:11:23.069Z,98523.94
2018-03-21T11:13:51.695Z,98518.95
2018-03-21T11:16:20.640Z,98533.05
2018-03-21T11:18:50.778Z,98527.53
2018-03-21T11:21:20.502Z,98533.50
2018-03-21T11:23:49.970Z,98532.66
2018-03-21T11:26:18.488Z,98525.47
2018-03-21T11:28:47.385Z,98523.09
2018-03-21T11:31:15.980Z,98521.11
2018-03-21T11:33:44.675Z,98520.21
2018-03-21T11:36:13.312Z,98530.91
2018-03-21T11:38:41.828Z,98538.95
2018-03-21T11:41:10.530Z,98543.80
2018-03-21T11:43:39.479Z,98529.27
2018-03-21T11:46:08.906Z,98535.50
2018-03-21T11:48:38.531Z,98531.20
2018-03-21T11:51:09.323Z,98523.55
2018-03-21T11:53:38.192Z,98532.86
2018-03-21T11:56:07.610Z,98523.87
2018-03-21T11:58:36.198Z,98530.23
2018-03-21T12:01:04.934Z,98513.80
2018-03-21T12:03:34.547Z,98518.18
2018-03-21T12:06:03.453Z,98515.16
2018-03-21T12:08:32.140Z,98522.39
2018-03-21T12:11:00.737Z,98530.36
2018-03-21T12:13:29.418Z,98532.89
2018-03-21T12:15:58.219Z,98532.41
2018-03-21T12:18:26.785Z,98531.45
2018-03-21T12:20:55.676Z,98523.66
2018-03-21T12:23:24.986Z,98538.91
2018-03-21T12:25:53.876Z,98535.19
2018-03-21T12:28:22.623Z,98519.76
2018-03-21T12:30:51.473Z,98529.73
2018-03-21T12:33:20.762Z,98527.24
2018-03-21T12:35:49.345Z,98522.03
2018-03-21T12:38:17.986Z,98535.99
2018-03-21T12:40:46.507Z,98541.26
2018-03-21T12:43:15.948Z,98538.87
2018-03-21T12:45:44.588Z,98549.08
2018-03-21T12:48:13.321Z,98544.52
2018-03-21T12:50:42.993Z,98545.48
2018-03-21T12:53:12.970Z,98535.02
2018-03-21T12:55:42.248Z,98542.48
2018-03-21T12:58:11.184Z,98542.80
2018-03-21T13:00:39.889Z,98547.27
2018-03-21T13:03:09.255Z,98543.09
2018-03-21T13:05:37.820Z,98535.80
2018-03-21T13:08:06.350Z,98534.77
2018-03-21T13:10:35.035Z,98545.14
2018-03-21T13:13:03.758Z,98551.21
2018-03-21T13:15:32.650Z,98558.97
2018-03-21T13:18:02.087Z,98554.33
2018-03-21T13:20:30.816Z,98555.34
2018-03-21T13:22:59.629Z,98557.80
2018-03-21T13:25:29.222Z,98551.09
2018-03-21T13:27:59.667Z,98547.52
2018-03-21T13:30:28.940Z,98549.73
2018-03-21T13:32:58.452Z,98557.59
2018-03-21T13:35:27.064Z,98555.20
2018-03-21T13:37:55.706Z,98557.55
2018-03-21T13:40:24.398Z,98549.74
2018-03-21T13:42:53.898Z,98552.41
2018-03-21T13:45:22.526Z,98573.55
2018-03-21T13:47:51.991Z,98571.77
2018-03-21T13:50:29.401Z,98572.64
2018-03-21T13:52:58.718Z,98566.17
2018-03-21T13:55:28.330Z,98554.00
2018-03-21T13:57:57.907Z,98546.98
2018-03-21T14:00:26.655Z,98548.13
2018-03-21T14:02:55.297Z,98554.42
2018-03-21T14:05:24.136Z,98560.61
2018-03-21T14:07:52.877Z,98556.24
2018-03-21T14:10:21.643Z,98557.34
2018-03-21T14:12:50.359Z,98558.19
2018-03-21T14:15:19.455Z,98551.30
2018-03-21T14:17:49.016Z,98548.48
2018-03-21T14:20:18.408Z,98556.28
2018-03-21T14:22:47.761Z,98551.04
2018-03-21T14:25:18.519Z,98545.27
2018-03-21T14:27:47.196Z,98538.77
2018-03-21T14:30:16.083Z,98543.51
2018-03-21T14:32:44.867Z,98555.53
2018-03-21T14:35:13.579Z,98551.94
2018-03-21T14:37:42.154Z,98547.05
2018-03-21T14:40:11.532Z,98552.40
2018-03-21T14:42:40.215Z,98563.22
2018-03-21T14:45:09.050Z,98568.49
2018-03-21T14:47:37.829Z,98546.50
2018-03-21T14:50:06.731Z,98559.06
2018-03-21T14:52:35.492Z,98551.11
2018-03-21T14:55:05.171Z,98559.37
2018-03-21T14:57:34.350Z,98550.83
2018-03-21T15:00:02.971Z,98543.53
2018-03-21T15:02:32.611Z,98545.00
2018-03-21T15:05:01.424Z,98543.48
2018-03-21T15:07:30.122Z,98539.50
2018-03-21T15:09:59.576Z,98549.52
2018-03-21T15:12:28.192Z,98553.91
2018-03-21T15:14:57.094Z,98552.58
2018-03-21T15:17:25.778Z,98557.55
2018-03-21T15:19:55.367Z,98554.81
2018-03-21T15:22:24.070Z,98550.70
2018-03-21T15:24:53.202Z,98548.67
2018-03-21T15:27:23.423Z,98560.80
2018-03-21T15:29:52.358Z,98557.88
2018-03-21T15:32:21.077Z,98568.98
2018-03-21T15:34:49.808Z,98572.15
2018-03-21T15:37:19.286Z,98571.27
2018-03-21T15:39:48.255Z,98573.41
2018-03-21T15:42:17.693Z,98574.64
2018-03-21T15:44:47.186Z,98580.89
2018-03-21T15:47:16.654Z,98575.48
2018-03-21T15:49:45.424Z,98571.64
2018-03-21T15:52:14.982Z,98570.28
2018-03-21T15:54:44.065Z,98575.84
2018-03-21T15:57:13.086Z,98567.37
2018-03-21T15:59:42.843Z,98575.98
2018-03-21T16:02:11.873Z,98580.25
2018-03-21T16:04:40.693Z,98597.30
2018-03-21T16:07:09.384Z,98597.69
2018-03-21T16:09:39.113Z,98598.10
2018-03-21T16:12:08.403Z,98599.14
2018-03-21T16:14:37.925Z,98592.72
2018-03-21T16:17:07.887Z,98602.40
2018-03-21T16:19:36.642Z,98606.05
2018-03-21T16:22:05.361Z,98596.55
2018-03-21T16:24:34.161Z,98588.27
2018-03-21T16:27:04.668Z,98591.05
2018-03-21T16:29:33.702Z,98586.45
2018-03-21T16:32:03.312Z,98583.43
2018-03-21T16:34:32.269Z,98585.44
2018-03-21T16:37:01.069Z,98589.45
2018-03-21T16:39:29.812Z,98592.05
2018-03-21T16:41:59.242Z,98595.86
2018-03-21T16:44:28.599Z,98597.38
2018-03-21T16:46:57.409Z,98605.17
2018-03-21T16:49:26.436Z,98609.48
2018-03-21T16:51:56.190Z,98614.72
2018-03-21T16:54:25.590Z,98625.72
2018-03-21T16:56:55.194Z,98627.98
2018-03-21T16:59:25.175Z,98633.80
2018-03-21T17:01:54.991Z,98636.02
2018-03-21T17:04:24.550Z,98634.60
2018-03-21T17:06:53.180Z,98632.48
2018-03-21T17:09:22.768Z,98637.75
2018-03-21T17:11:51.603Z,98642.59
2018-03-21T17:14:21.229Z,98649.71
2018-03-21T17:16:50.838Z,98652.70
2018-03-21T17:19:19.713Z,98655.09
2018-03-21T17:21:48.583Z,98658.20
2018-03-21T17:24:18.950Z,98665.07
2018-03-21T17:26:48.639Z,98664.48
2018-03-21T17:29:18.513Z,98664.05
2018-03-21T17:31:47.571Z,98654.94
2018-03-21T17:34:16.744Z,98661.53
2018-03-21T17:36:45.595Z,98659.56
2018-03-21T17:39:14.549Z,98656.53
2018-03-21T17:41:44.339Z,98659.42
2018-03-21T17:44:13.299Z,98653.91
2018-03-21T17:46:43.253Z,98666.42
2018-03-21T17:49:12.947Z,98669.06
2018-03-21T17:51:42.711Z,98670.94
2018-03-21T17:54:12.655Z,98674.05
2018-03-21T17:56:41.900Z,98687.19
2018-03-21T17:59:11.035Z,98689.12
2018-03-21T18:01:40.087Z,98685.61
2018-03-21T18:04:09.824Z,98690.92
2018-03-21T18:06:39.488Z,98695.16
2018-03-21T18:09:08.484Z,98700.97
2018-03-21T18:11:37.456Z,98703.50
2018-03-21T18:14:06.529Z,98703.27
2018-03-21T18:16:35.601Z,98701.89
2018-03-21T18:19:05.937Z,98711.23
2018-03-21T18:21:36.768Z,98711.32
2018-03-21T18:24:06.297Z,98712.16
2018-03-21T18:26:36.352Z,98721.92
2018-03-21T18:29:05.434Z,98721.16
2018-03-21T18:31:34.543Z,98716.70
2018-03-21T18:34:04.177Z,98724.05
2018-03-21T18:36:34.408Z,98726.34
2018-03-21T18:39:04.347Z,98715.59
2018-03-21T18:41:33.676Z,98722.14
2018-03-21T18:44:02.826Z,98721.86
2018-03-21T18:46:33.632Z,98726.53
2018-03-21T18:49:03.817Z,98729.20
2018-03-21T18:51:32.825Z,98729.02
2018-03-21T18:54:01.860Z,98736.53
2018-03-21T18:56:31.680Z,98738.02
2018-03-21T18:59:00.629Z,98743.83
2018-03-21T19:01:29.806Z,98745.83
2018-03-21T19:03:59.910Z,98742.93
2018-03-21T19:06:29.068Z,98746.94
2018-03-21T19:09:01.361Z,98755.91
2018-03-21T19:11:31.740Z,98760.78
2018-03-21T19:14:01.137Z,98757.91
2018-03-21T19:16:31.327Z,98754.39
2018-03-21T19:19:00.317Z,98754.71
2018-03-21T19:21:30.413Z,98759.55
2018-03-21T19:23:59.702Z,98768.56
2018-03-21T19:26:28.784Z,98770.50
2018-03-21T19:28:57.959Z,98775.88
2018-03-21T19:31:26.894Z,98765.74
2018-03-21T19:33:58.277Z,98762.73
2018-03-21T19:36:27.750Z,98761.80
2018-03-21T19:38:57.484Z,98761.63
2018-03-21T19:41:26.751Z,98760.98
2018-03-21T19:43:56.090Z,98763.15
2018-03-21T19:46:28.297Z,98764.95
2018-03-21T19:48:59.853Z,98765.30
2018-03-21T19:51:29.648Z,98767.23
2018-03-21T19:54:00.008Z,98761.89
2018-03-21T19:56:29.446Z,98763.95
2018-03-21T19:58:59.037Z,98759.72
2018-03-21T20:01:29.756Z,98759.38
2018-03-21T20:04:01.147Z,98758.84
2018-03-21T20:06:30.269Z,98759.44
2018-03-21T20:08:59.465Z,98754.54
2018-03-21T20:11:28.498Z,98757.30
2018-03-21T20:13:57.615Z,98756.43
2018-03-21T20:16:26.848Z,98752.95
2018-03-21T20:18:57.458Z,98746.59
2018-03-21T20:21:26.635Z,98751.19
2018-03-21T20:23:55.827Z,98745.42
2018-03-21T20:26:25.583Z,98740.27
2018-03-21T20:28:55.915Z,98745.13
2018-03-21T20:31:26.047Z,98747.47
2018-03-21T20:33:56.861Z,98742.91
2018-03-21T20:36:26.261Z,98738.94
2018-03-21T20:38:55.728Z,98752.03
2018-03-21T20:41:26.084Z,98749.30
2018-03-21T20:43:55.422Z,98760.52
2018-03-21T20:46:25.488Z,98752.13
2018-03-21T20:48:54.562Z,98754.19
2018-03-21T20:51:24.277Z,98755.34
2018-03-21T20:53:54.173Z,98750.44
2018-03-21T20:56:23.632Z,98748.39
2018-03-21T20:58:52.746Z,98739.99
2018-03-21T21:01:23.278Z,98743.37
2018-03-21T21:03:53.491Z,98742.31
2018-03-21T21:06:22.767Z,98748.81
2018-03-21T21:08:51.664Z,98744.50
2018-03-21T21:11:21.229Z,98743.19
2018-03-21T21:13:59.741Z,98743.51
2018-03-21T21:16:28.586Z,98751.64
2018-03-21T21:18:58.508Z,98757.11
2018-03-21T21:21:28.685Z,98754.65
2018-03-21T21:23:58.141Z,98751.14
2018-03-21T21:26:27.033Z,98755.56
2018-03-21T21:28:55.879Z,98753.52
2018-03-21T21:31:24.714Z,98759.23
2018-03-21T21:33:54.235Z,98763.69
2018-03-21T21:36:23.081Z,98771.03
2018-03-21T21:38:52.090Z,98769.84
2018-03-21T21:41:21.218Z,98765.25
2018-03-21T21:43:52.382Z,98762.53
2018-03-21T21:46:21.235Z,98772.53
2018-03-21T21:48:50.871Z,98774.02
2018-03-21T21:51:19.862Z,98775.47
2018-03-21T21:53:48.739Z,98760.39
2018-03-21T21:56:17.443Z,98764.59
2018-03-21T21:58:46.165Z,98766.70
2018-03-21T22:01:15.255Z,98754.44
2018-03-21T22:03:44.227Z,98757.32
2018-03-21T22:06:13.817Z,98757.30
2018-03-21T22:08:42.554Z,98746.78
2018-03-21T22:11:11.527Z,98751.50
2018-03-21T22:13:41.329Z,98747.47
2018-03-21T22:16:11.251Z,98754.88
2018-03-21T22:18:39.907Z,98753.69
2018-03-21T22:21:09.060Z,98756.49
2018-03-21T22:23:37.751Z,98751.37
2018-03-21T22:26:06.550Z,98754.75
2018-03-21T22:28:35.700Z,98745.89
2018-03-21T22:31:04.581Z,98744.27
2018-03-21T22:33:33.626Z,98745.58
2018-03-21T22:36:02.446Z,98747.50
2018-03-21T22:38:31.119Z,98741.88
2018-03-21T22:40:59.984Z,98751.29
2018-03-21T22:43:29.703Z,98747.75
2018-03-21T22:45:59.767Z,98749.79
2018-03-21T22:48:28.654Z,98749.42
2018-03-21T22:50:58.110Z,98740.12
2018-03-21T22:53:26.854Z,98736.28
2018-03-21T22:55:55.820Z,98738.50
2018-03-21T22:58:24.589Z,98733.88
2018-03-21T23:00:53.277Z,98729.82
2018-03-21T23:03:21.973Z,98730.27
2018-03-21T23:05:50.843Z,98723.11
2018-03-21T23:08:20.430Z,98733.52
2018-03-21T23:10:48.994Z,98729.23
2018-03-21T23:13:17.817Z,98727.64
2018-03-21T23:15:47.875Z,98724.24
2018-03-21T23:18:17.223Z,98730.09
2018-03-21T23:20:45.888Z,98725.06
2018-03-21T23:23:14.499Z,98727.53
2018-03-21T23:25:43.109Z,98723.02
2018-03-21T23:28:11.781Z,98715.02
2018-03-21T23:30:40.546Z,98719.52
2018-03-21T23:33:09.211Z,98716.16
2018-03-21T23:35:37.890Z,98711.12
2018-03-21T23:38:07.229Z,98711.44
2018-03-21T23:40:35.961Z,98715.84
2018-03-21T23:43:04.621Z,98710.46
2018-03-21T23:45:33.405Z,98717.94
2018-03-21T23:48:02.327Z,98713.37
2018-03-21T23:50:31.607Z,98716.19
2018-03-21T23:53:00.663Z,98708.84
2018-03-21T23:55:29.321Z,98717.91
2018-03-21T23:57:57.930Z,98719.73
